createdAt,value
2018-07-23T00:01:22.636Z,64.01
2018-07-23T00:03:50.695Z,64.56
2018-07-23T00:06:18.731Z,64.36
2018-07-23T00:08:46.816Z,64.72
2018-07-23T00:11:14.882Z,64.69
2018-07-23T00:13:42.961Z,65.07
2018-07-23T00:16:10.976Z,65.10
2018-07-23T00:18:39.085Z,64.84
2018-07-23T00:21:07.144Z,65.16
2018-07-23T00:23:35.168Z,64.93
2018-07-23T00:26:03.199Z,64.81
2018-07-23T00:28:31.232Z,65.55
2018-07-23T00:30:59.281Z,65.05
2018-07-23T00:33:27.312Z,65.05
2018-07-23T00:35:55.355Z,65.22
2018-07-23T00:38:23.395Z,65.48
2018-07-23T00:40:51.422Z,65.41
2018-07-23T00:43:19.474Z,65.58
2018-07-23T00:45:47.508Z,65.55
2018-07-23T00:48:15.548Z,65.99
2018-07-23T00:50:43.571Z,65.41
2018-07-23T00:53:11.616Z,65.72
2018-07-23T00:55:39.639Z,66.09
2018-07-23T00:58:07.671Z,65.86
2018-07-23T01:00:35.696Z,65.50
2018-07-23T01:03:05.656Z,65.86
2018-07-23T01:05:34.248Z,65.95
2018-07-23T01:08:02.296Z,65.96
2018-07-23T01:10:30.351Z,66.28
2018-07-23T01:12:58.403Z,65.93
2018-07-23T01:15:26.432Z,66.10
2018-07-23T01:17:54.471Z,65.90
2018-07-23T01:20:22.531Z,65.97
2018-07-23T01:22:50.568Z,66.29
2018-07-23T01:25:18.592Z,66.10
2018-07-23T01:27:46.628Z,66.38
2018-07-23T01:30:14.654Z,66.51
2018-07-23T01:32:42.712Z,66.55
2018-07-23T01:35:10.752Z,66.59
2018-07-23T01:37:38.784Z,66.65
2018-07-23T01:40:06.825Z,66.56
2018-07-23T01:42:34.875Z,66.27
2018-07-23T01:45:02.919Z,66.60
2018-07-23T01:47:30.940Z,66.77
2018-07-23T01:49:58.976Z,66.79
2018-07-23T01:52:27.028Z,67.02
2018-07-23T01:54:55.175Z,67.42
2018-07-23T01:57:23.196Z,67.19
2018-07-23T01:59:51.228Z,67.37
2018-07-23T02:02:19.256Z,67.27
2018-07-23T02:04:47.328Z,67.56
2018-07-23T02:07:15.376Z,67.08
2018-07-23T02:09:43.742Z,67.37
2018-07-23T02:12:11.800Z,67.36
2018-07-23T02:14:39.832Z,67.54
2018-07-23T02:17:07.860Z,67.70
2018-07-23T02:19:35.900Z,67.40
2018-07-23T02:22:03.936Z,67.62
2018-07-23T02:24:31.983Z,67.49
2018-07-23T02:27:00.040Z,68.00
2018-07-23T02:29:28.096Z,67.97
2018-07-23T02:31:56.129Z,67.68
2018-07-23T02:34:24.168Z,67.74
2018-07-23T02:36:52.196Z,68.23
2018-07-23T02:39:20.283Z,67.78
2018-07-23T02:41:48.307Z,67.89
2018-07-23T02:44:16.355Z,68.18
2018-07-23T02:46:44.380Z,68.55
2018-07-23T02:49:12.444Z,68.45
2018-07-23T02:51:40.463Z,68.33
2018-07-23T02:54:08.496Z,68.36
2018-07-23T02:56:36.551Z,68.66
2018-07-23T02:59:04.608Z,68.44
2018-07-23T03:01:32.659Z,68.59
2018-07-23T03:04:00.728Z,68.41
2018-07-23T03:06:29.736Z,68.57
2018-07-23T03:08:58.060Z,68.73
2018-07-23T03:11:26.462Z,68.98
2018-07-23T03:13:54.508Z,68.85
2018-07-23T03:16:22.563Z,68.96
2018-07-23T03:18:51.200Z,69.27
2018-07-23T03:21:19.230Z,69.09
2018-07-23T03:23:47.267Z,69.02
2018-07-23T03:26:15.320Z,69.19
2018-07-23T03:28:43.367Z,69.02
2018-07-23T03:31:11.416Z,68.98
2018-07-23T03:33:39.464Z,69.30
2018-07-23T03:36:07.517Z,69.26
2018-07-23T03:38:35.552Z,69.04
2018-07-23T03:41:03.623Z,69.46
2018-07-23T03:43:31.644Z,69.37
2018-07-23T03:45:59.707Z,69.38
2018-07-23T03:48:27.744Z,69.55
2018-07-23T03:50:55.833Z,69.78
2018-07-23T03:53:23.855Z,69.62
2018-07-23T03:55:51.900Z,70.08
2018-07-23T03:58:19.935Z,70.20
2018-07-23T04:00:47.977Z,70.16
2018-07-23T04:03:16.018Z,70.00
2018-07-23T04:05:44.080Z,70.11
2018-07-23T04:08:12.116Z,70.02
2018-07-23T04:10:40.281Z,70.41
2018-07-23T04:13:08.340Z,70.16
2018-07-23T04:15:36.384Z,70.65
2018-07-23T04:18:04.909Z,70.52
2018-07-23T04:20:35.490Z,70.88
2018-07-23T04:23:04.528Z,70.46
2018-07-23T04:25:32.584Z,70.65
2018-07-23T04:28:01.117Z,70.79
2018-07-23T04:30:29.388Z,71.10
2018-07-23T04:32:57.696Z,71.06
2018-07-23T04:35:25.760Z,70.57
2018-07-23T04:37:53.851Z,70.81
2018-07-23T04:40:21.844Z,70.96
2018-07-23T04:42:49.867Z,71.31
2018-07-23T04:45:17.904Z,71.46
2018-07-23T04:47:45.935Z,71.03
2018-07-23T04:50:13.991Z,71.90
2018-07-23T04:52:42.016Z,71.82
2018-07-23T04:55:10.104Z,71.66
2018-07-23T04:57:38.137Z,71.70
2018-07-23T05:00:06.204Z,71.96
2018-07-23T05:02:34.236Z,72.02
2018-07-23T05:05:02.356Z,71.90
2018-07-23T05:07:30.388Z,71.68
2018-07-23T05:09:58.420Z,72.65
2018-07-23T05:12:26.688Z,72.22
2018-07-23T05:14:54.716Z,72.34
2018-07-23T05:17:22.753Z,71.99
2018-07-23T05:19:50.773Z,71.67
2018-07-23T05:22:18.836Z,71.98
2018-07-23T05:24:46.883Z,71.79
2018-07-23T05:27:14.928Z,71.87
2018-07-23T05:29:42.966Z,71.91
2018-07-23T05:32:11.129Z,71.90
2018-07-23T05:34:39.164Z,71.10
2018-07-23T05:37:07.227Z,71.10
2018-07-23T05:39:35.252Z,71.55
2018-07-23T05:42:03.297Z,70.92
2018-07-23T05:44:31.338Z,70.96
2018-07-23T05:46:59.372Z,71.03
2018-07-23T05:49:27.404Z,70.86
2018-07-23T05:51:55.463Z,69.98
2018-07-23T05:54:23.492Z,69.91
2018-07-23T05:56:51.540Z,70.12
2018-07-23T05:59:19.896Z,69.46
2018-07-23T06:01:47.936Z,69.53
2018-07-23T06:04:16.040Z,68.85
2018-07-23T06:06:44.162Z,69.04
2018-07-23T06:09:12.179Z,68.53
2018-07-23T06:11:40.243Z,68.38
2018-07-23T06:14:08.285Z,68.09
2018-07-23T06:16:36.328Z,67.45
2018-07-23T06:19:04.364Z,67.53
2018-07-23T06:21:32.459Z,67.14
2018-07-23T06:24:00.485Z,67.02
2018-07-23T06:26:28.541Z,67.32
2018-07-23T06:28:56.575Z,66.25
2018-07-23T06:31:24.615Z,66.32
2018-07-23T06:33:52.712Z,65.82
2018-07-23T06:36:20.765Z,65.22
2018-07-23T06:38:48.824Z,65.52
2018-07-23T06:41:16.864Z,65.49
2018-07-23T06:43:44.909Z,65.09
2018-07-23T06:46:12.970Z,64.05
2018-07-23T06:48:41.007Z,64.54
2018-07-23T06:51:09.095Z,63.58
2018-07-23T06:53:37.139Z,64.14
2018-07-23T06:56:05.399Z,63.81
2018-07-23T06:58:33.543Z,62.79
2018-07-23T07:01:01.592Z,62.36
2018-07-23T07:03:29.676Z,61.73
2018-07-23T07:05:57.724Z,60.78
2018-07-23T07:08:25.777Z,61.01
2018-07-23T07:10:53.854Z,60.78
2018-07-23T07:13:21.892Z,60.21
2018-07-23T07:15:49.959Z,60.06
2018-07-23T07:18:18.011Z,60.45
2018-07-23T07:20:46.058Z,59.59
2018-07-23T07:23:14.105Z,59.50
2018-07-23T07:25:42.163Z,59.22
2018-07-23T07:28:10.215Z,59.04
2018-07-23T07:30:38.256Z,58.46
2018-07-23T07:33:06.580Z,57.85
2018-07-23T07:35:34.620Z,58.08
2018-07-23T07:38:02.710Z,57.73
2018-07-23T07:40:30.761Z,57.57
2018-07-23T07:42:58.808Z,57.74
2018-07-23T07:45:26.842Z,57.45
2018-07-23T07:47:54.891Z,57.21
2018-07-23T07:50:22.925Z,56.80
2018-07-23T07:52:50.973Z,56.71
2018-07-23T07:55:19.031Z,56.39
2018-07-23T07:57:47.096Z,56.25
2018-07-23T08:00:15.147Z,56.18
2018-07-23T08:02:43.219Z,55.46
2018-07-23T08:05:11.296Z,55.02
2018-07-23T08:07:39.359Z,54.87
2018-07-23T08:10:07.452Z,54.76
2018-07-23T08:12:35.575Z,54.26
2018-07-23T08:15:03.615Z,54.00
2018-07-23T08:17:31.668Z,54.03
2018-07-23T08:19:59.716Z,53.50
2018-07-23T08:22:27.774Z,52.97
2018-07-23T08:24:55.820Z,52.57
2018-07-23T08:27:23.909Z,53.19
2018-07-23T08:29:51.940Z,52.91
2018-07-23T08:32:20.080Z,52.93
2018-07-23T08:34:48.112Z,52.52
2018-07-23T08:37:16.237Z,52.52
2018-07-23T08:39:44.273Z,51.03
2018-07-23T08:42:12.309Z,51.42
2018-07-23T08:44:40.372Z,50.34
2018-07-23T08:47:08.457Z,50.15
2018-07-23T08:49:36.505Z,49.31
2018-07-23T08:52:04.571Z,48.96
2018-07-23T08:54:32.642Z,48.61
2018-07-23T08:57:00.682Z,47.55
2018-07-23T08:59:28.721Z,47.02
2018-07-23T09:01:56.759Z,46.14
2018-07-23T09:04:24.873Z,45.49
2018-07-23T09:06:53.120Z,45.13
2018-07-23T09:09:21.195Z,45.01
2018-07-23T09:11:49.259Z,44.03
2018-07-23T09:14:17.307Z,43.04
2018-07-23T09:16:45.339Z,43.58
2018-07-23T09:19:13.388Z,42.92
2018-07-23T09:21:41.424Z,41.98
2018-07-23T09:24:09.497Z,41.83
2018-07-23T09:26:37.561Z,41.71
2018-07-23T09:29:05.632Z,39.88
2018-07-23T09:31:33.660Z,40.35
2018-07-23T09:34:01.701Z,39.79
2018-07-23T09:36:29.728Z,38.73
2018-07-23T09:38:57.771Z,37.77
2018-07-23T09:41:25.843Z,38.33
2018-07-23T09:43:53.912Z,36.99
2018-07-23T09:46:21.956Z,36.19
2018-07-23T09:48:50.009Z,36.18
2018-07-23T09:51:18.051Z,35.37
2018-07-23T09:53:46.128Z,34.88
2018-07-23T09:56:14.181Z,33.98
2018-07-23T09:58:42.236Z,34.12
2018-07-23T10:01:13.319Z,34.35
2018-07-23T10:03:42.298Z,33.61
2018-07-23T10:06:10.299Z,33.58
2018-07-23T10:08:38.361Z,33.23
2018-07-23T10:11:06.632Z,33.50
2018-07-23T10:13:34.691Z,32.42
2018-07-23T10:16:02.740Z,32.51
2018-07-23T10:18:30.800Z,32.73
2018-07-23T10:20:58.832Z,32.11
2018-07-23T10:23:26.948Z,31.00
2018-07-23T10:25:54.985Z,31.39
2018-07-23T10:28:23.048Z,31.56
2018-07-23T10:30:51.120Z,30.08
2018-07-23T10:33:19.163Z,30.22
2018-07-23T10:35:47.217Z,29.96
2018-07-23T10:38:15.348Z,29.64
2018-07-23T10:40:43.423Z,29.67
2018-07-23T10:43:11.476Z,30.52
2018-07-23T10:45:39.519Z,30.50
2018-07-23T10:48:07.639Z,30.45
2018-07-23T10:50:35.711Z,30.35
2018-07-23T10:53:03.787Z,30.02
2018-07-23T10:55:31.823Z,29.98
2018-07-23T10:57:59.868Z,30.20
2018-07-23T11:00:27.912Z,29.44
2018-07-23T11:02:55.972Z,29.96
2018-07-23T11:05:24.029Z,30.36
2018-07-23T11:07:52.104Z,30.00
2018-07-23T11:10:20.155Z,30.77
2018-07-23T11:12:48.260Z,29.70
2018-07-23T11:15:16.283Z,30.45
2018-07-23T11:17:44.326Z,29.51
2018-07-23T11:20:13.005Z,29.58
2018-07-23T11:22:41.500Z,29.36
2018-07-23T11:25:38.702Z,29.72
2018-07-23T11:27:37.612Z,28.74
2018-07-23T11:30:05.876Z,29.09
2018-07-23T11:32:34.407Z,28.43
2018-07-23T11:35:02.463Z,28.13
2018-07-23T11:37:30.500Z,28.36
2018-07-23T11:39:58.551Z,28.26
2018-07-23T11:42:26.588Z,28.28
2018-07-23T11:44:54.663Z,28.34
2018-07-23T11:47:22.702Z,28.86
2018-07-23T11:49:50.744Z,27.98
2018-07-23T11:52:18.796Z,28.47
2018-07-23T11:54:46.844Z,28.40
2018-07-23T11:57:14.888Z,28.53
2018-07-23T11:59:42.941Z,28.92
2018-07-23T12:02:10.985Z,28.79
2018-07-23T12:04:39.165Z,29.71
2018-07-23T12:07:07.672Z,30.07
2018-07-23T12:09:35.752Z,30.77
2018-07-23T12:12:03.800Z,30.34
2018-07-23T12:14:31.847Z,30.54
2018-07-23T12:16:59.908Z,30.01
2018-07-23T12:19:27.975Z,30.79
2018-07-23T12:21:56.048Z,29.81
2018-07-23T12:24:24.116Z,30.54
2018-07-23T12:26:52.179Z,30.44
2018-07-23T12:29:20.235Z,30.35
2018-07-23T12:31:48.287Z,30.17
2018-07-23T12:34:16.335Z,29.86
2018-07-23T12:36:44.384Z,29.90
2018-07-23T12:39:12.898Z,29.46
2018-07-23T12:41:41.576Z,29.35
2018-07-23T12:44:09.941Z,28.50
2018-07-23T12:46:38.017Z,29.08
2018-07-23T12:49:06.052Z,29.30
2018-07-23T12:51:34.116Z,28.33
2018-07-23T12:54:02.176Z,28.72
2018-07-23T12:56:30.223Z,29.61
2018-07-23T12:58:58.294Z,28.72
2018-07-23T13:01:26.376Z,28.90
2018-07-23T13:03:54.420Z,28.61
2018-07-23T13:06:22.499Z,28.58
2018-07-23T13:08:50.567Z,28.47
2018-07-23T13:11:18.620Z,29.35
2018-07-23T13:13:46.656Z,28.89
2018-07-23T13:16:14.721Z,29.04
2018-07-23T13:18:42.755Z,30.11
2018-07-23T13:21:10.815Z,30.33
2018-07-23T13:23:38.864Z,29.52
2018-07-23T13:26:07.096Z,31.12
2018-07-23T13:28:35.135Z,30.04
2018-07-23T13:31:03.231Z,30.45
2018-07-23T13:33:31.263Z,29.98
2018-07-23T13:35:59.348Z,29.58
2018-07-23T13:38:27.383Z,30.86
2018-07-23T13:40:55.444Z,30.55
2018-07-23T13:43:23.484Z,29.62
2018-07-23T13:45:51.555Z,29.51
2018-07-23T13:48:19.600Z,29.61
2018-07-23T13:50:47.724Z,30.04
2018-07-23T13:53:15.795Z,29.87
2018-07-23T13:55:43.867Z,29.42
2018-07-23T13:58:11.912Z,29.60
2018-07-23T14:00:39.971Z,29.32
2018-07-23T14:03:08.012Z,29.85
2018-07-23T14:05:36.451Z,29.05
2018-07-23T14:08:04.735Z,29.57
2018-07-23T14:10:32.909Z,28.71
2018-07-23T14:13:00.977Z,28.54
2018-07-23T14:15:29.012Z,28.70
2018-07-23T14:17:57.331Z,28.77
2018-07-23T14:20:25.414Z,28.69
2018-07-23T14:22:53.488Z,28.87
2018-07-23T14:25:21.519Z,28.92
2018-07-23T14:27:49.572Z,28.33
2018-07-23T14:30:17.628Z,28.53
2018-07-23T14:32:45.695Z,28.75
2018-07-23T14:35:13.761Z,28.69
2018-07-23T14:37:41.840Z,28.59
2018-07-23T14:40:09.889Z,28.54
2018-07-23T14:42:37.951Z,29.03
2018-07-23T14:45:06.989Z,28.94
2018-07-23T14:47:35.061Z,28.93
2018-07-23T14:50:03.107Z,28.18
2018-07-23T14:52:31.177Z,28.78
2018-07-23T14:54:59.255Z,28.18
2018-07-23T14:57:27.312Z,28.40
2018-07-23T14:59:55.353Z,27.51
2018-07-23T15:02:23.447Z,28.15
2018-07-23T15:04:51.487Z,27.63
2018-07-23T15:07:19.555Z,28.35
2018-07-23T15:09:47.619Z,27.81
2018-07-23T15:12:15.668Z,27.66
2018-07-23T15:14:43.716Z,27.78
2018-07-23T15:17:11.777Z,28.19
2018-07-23T15:19:39.808Z,27.69
2018-07-23T15:22:07.869Z,27.54
2018-07-23T15:24:35.911Z,27.94
2018-07-23T15:27:04.084Z,28.02
2018-07-23T15:29:32.137Z,28.18
2018-07-23T15:32:00.228Z,27.69
2018-07-23T15:34:28.293Z,27.54
2018-07-23T15:36:56.339Z,28.34
2018-07-23T15:39:24.380Z,27.77
2018-07-23T15:41:52.428Z,28.48
2018-07-23T15:44:21.049Z,27.84
2018-07-23T15:46:48.948Z,28.77
2018-07-23T15:49:16.996Z,28.69
2018-07-23T15:51:45.049Z,29.01
2018-07-23T15:54:13.141Z,29.10
2018-07-23T15:56:41.199Z,28.98
2018-07-23T15:59:09.317Z,28.72
2018-07-23T16:01:37.355Z,29.44
2018-07-23T16:04:05.437Z,30.09
2018-07-23T16:06:33.484Z,29.10
2018-07-23T16:09:01.524Z,30.19
2018-07-23T16:11:29.566Z,30.28
2018-07-23T16:13:57.633Z,29.87
2018-07-23T16:16:25.722Z,29.51
2018-07-23T16:18:53.830Z,30.25
2018-07-23T16:21:21.852Z,31.13
2018-07-23T16:23:49.927Z,30.59
2018-07-23T16:26:18.001Z,30.91
2018-07-23T16:28:46.063Z,31.33
2018-07-23T16:31:14.101Z,31.16
2018-07-23T16:33:42.192Z,31.31
2018-07-23T16:36:10.245Z,31.90
2018-07-23T16:38:38.351Z,31.95
2018-07-23T16:41:06.416Z,31.75
2018-07-23T16:43:34.483Z,32.42
2018-07-23T16:46:02.551Z,31.87
2018-07-23T16:48:30.644Z,33.08
2018-07-23T16:50:58.699Z,32.01
2018-07-23T16:53:26.744Z,32.18
2018-07-23T16:55:54.804Z,32.90
2018-07-23T16:58:22.898Z,33.51
2018-07-23T17:00:50.944Z,32.95
2018-07-23T17:03:19.012Z,33.57
2018-07-23T17:05:47.064Z,33.96
2018-07-23T17:08:15.891Z,33.78
2018-07-23T17:10:43.979Z,33.65
2018-07-23T17:13:12.255Z,33.85
2018-07-23T17:15:40.315Z,34.39
2018-07-23T17:18:08.495Z,34.28
2018-07-23T17:20:36.423Z,33.79
2018-07-23T17:23:04.499Z,33.91
2018-07-23T17:25:32.563Z,34.85
2018-07-23T17:28:00.631Z,34.12
2018-07-23T17:30:28.688Z,34.52
2018-07-23T17:32:56.743Z,34.35
2018-07-23T17:35:24.847Z,34.60
2018-07-23T17:37:52.851Z,34.25
2018-07-23T17:40:20.906Z,34.19
2018-07-23T17:42:48.974Z,34.27
2018-07-23T17:45:17.141Z,34.35
2018-07-23T17:47:45.175Z,34.00
2018-07-23T17:50:13.264Z,34.03
2018-07-23T17:52:41.347Z,33.73
2018-07-23T17:55:09.449Z,34.59
2018-07-23T17:57:37.459Z,33.72
2018-07-23T18:00:05.843Z,35.07
2018-07-23T18:02:33.924Z,34.44
2018-07-23T18:05:01.976Z,35.24
2018-07-23T18:07:30.057Z,34.76
2018-07-23T18:09:58.206Z,34.38
2018-07-23T18:12:26.212Z,34.15
2018-07-23T18:14:54.276Z,34.14
2018-07-23T18:17:22.310Z,34.06
2018-07-23T18:19:50.451Z,35.18
2018-07-23T18:22:19.364Z,35.36
2018-07-23T18:24:47.410Z,35.06
2018-07-23T18:27:15.456Z,34.98
2018-07-23T18:29:43.524Z,34.92
2018-07-23T18:32:11.612Z,34.91
2018-07-23T18:34:39.685Z,34.44
2018-07-23T18:37:07.745Z,35.24
2018-07-23T18:39:35.782Z,35.24
2018-07-23T18:42:03.816Z,34.46
2018-07-23T18:44:31.855Z,35.00
2018-07-23T18:46:59.918Z,35.33
2018-07-23T18:49:41.983Z,34.78
2018-07-23T18:52:10.044Z,36.04
2018-07-23T18:54:38.518Z,35.37
2018-07-23T18:57:07.343Z,36.25
2018-07-23T18:59:35.497Z,35.74
2018-07-23T19:02:04.816Z,35.86
2018-07-23T19:04:32.963Z,36.90
2018-07-23T19:07:01.027Z,36.39
2018-07-23T19:09:29.769Z,36.54
2018-07-23T19:11:58.455Z,37.62
2018-07-23T19:14:26.499Z,37.55
2018-07-23T19:16:55.515Z,37.64
2018-07-23T19:19:23.576Z,37.74
2018-07-23T19:21:51.616Z,38.87
2018-07-23T19:24:19.648Z,39.40
2018-07-23T19:26:47.722Z,39.73
2018-07-23T19:29:15.787Z,39.01
2018-07-23T19:31:43.825Z,40.07
2018-07-23T19:34:11.888Z,40.53
2018-07-23T19:36:39.947Z,40.12
2018-07-23T19:39:09.369Z,40.77
2018-07-23T19:41:37.825Z,41.43
2018-07-23T19:44:06.287Z,40.91
2018-07-23T19:46:34.323Z,41.12
2018-07-23T19:49:02.391Z,41.32
2018-07-23T19:51:30.459Z,42.34
2018-07-23T19:53:58.510Z,42.79
2018-07-23T19:56:26.543Z,42.60
2018-07-23T19:58:54.575Z,42.34
2018-07-23T20:01:22.664Z,43.40
2018-07-23T20:03:50.715Z,43.16
2018-07-23T20:06:22.147Z,43.05
2018-07-23T20:08:50.955Z,43.98
2018-07-23T20:11:19.469Z,44.31
2018-07-23T20:13:47.487Z,43.73
2018-07-23T20:16:15.543Z,44.90
2018-07-23T20:18:43.576Z,44.58
2018-07-23T20:21:11.723Z,45.26
2018-07-23T20:23:39.834Z,44.76
2018-07-23T20:26:07.911Z,45.20
2018-07-23T20:28:36.604Z,45.81
2018-07-23T20:31:04.683Z,45.75
2018-07-23T20:33:32.929Z,46.04
2018-07-23T20:36:01.523Z,46.59
2018-07-23T20:38:29.604Z,46.49
2018-07-23T20:40:57.675Z,46.99
2018-07-23T20:43:26.379Z,46.92
2018-07-23T20:45:54.731Z,46.66
2018-07-23T20:48:22.733Z,47.15
2018-07-23T20:50:50.826Z,48.16
2018-07-23T20:53:18.895Z,47.64
2018-07-23T20:55:46.969Z,48.47
2018-07-23T20:58:15.035Z,48.77
2018-07-23T21:00:43.095Z,48.55
2018-07-23T21:03:11.191Z,48.66
2018-07-23T21:05:39.256Z,48.97
2018-07-23T21:08:07.307Z,49.25
2018-07-23T21:10:35.400Z,49.87
2018-07-23T21:13:03.493Z,49.73
2018-07-23T21:15:31.539Z,50.15
2018-07-23T21:17:59.596Z,50.28
2018-07-23T21:20:29.484Z,50.18
2018-07-23T21:22:57.582Z,50.62
2018-07-23T21:25:25.615Z,50.74
2018-07-23T21:27:53.745Z,51.11
2018-07-23T21:30:21.735Z,51.21
2018-07-23T21:32:49.805Z,51.33
2018-07-23T21:35:17.869Z,51.56
2018-07-23T21:37:45.917Z,51.54
2018-07-23T21:40:13.959Z,51.86
2018-07-23T21:42:42.023Z,52.21
2018-07-23T21:45:10.644Z,52.16
2018-07-23T21:47:38.780Z,52.03
2018-07-23T21:50:07.628Z,52.24
2018-07-23T21:52:35.804Z,52.53
2018-07-23T21:55:04.067Z,52.86
2018-07-23T21:57:32.127Z,53.02
2018-07-23T22:00:00.161Z,53.03
2018-07-23T22:02:28.215Z,53.14
2018-07-23T22:04:56.256Z,53.43
2018-07-23T22:07:24.436Z,53.66
2018-07-23T22:09:52.467Z,53.89
2018-07-23T22:12:20.543Z,54.37
2018-07-23T22:14:48.608Z,54.65
2018-07-23T22:17:16.684Z,54.98
2018-07-23T22:19:44.743Z,54.41
2018-07-23T22:22:12.796Z,54.41
2018-07-23T22:24:40.838Z,55.03
2018-07-23T22:27:08.960Z,55.24
2018-07-23T22:29:37.000Z,55.09
2018-07-23T22:32:05.107Z,55.03
2018-07-23T22:34:33.168Z,55.92
2018-07-23T22:37:01.240Z,55.51
2018-07-23T22:39:29.302Z,56.03
2018-07-23T22:41:57.404Z,56.28
2018-07-23T22:44:25.459Z,55.94
2018-07-23T22:46:53.497Z,56.13
2018-07-23T22:49:21.552Z,56.54
2018-07-23T22:51:49.595Z,56.90
2018-07-23T22:54:17.663Z,56.35
2018-07-23T22:56:45.709Z,56.21
2018-07-23T22:59:13.756Z,57.01
2018-07-23T23:01:41.827Z,57.31
2018-07-23T23:04:09.868Z,56.81
2018-07-23T23:06:37.916Z,57.33
2018-07-23T23:09:07.707Z,57.77
2018-07-23T23:11:35.741Z,57.64
2018-07-23T23:14:03.816Z,57.77
2018-07-23T23:16:31.879Z,58.34
2018-07-23T23:18:59.989Z,58.25
2018-07-23T23:21:28.027Z,58.34
2018-07-23T23:23:56.110Z,58.61
2018-07-23T23:26:24.168Z,58.70
2018-07-23T23:28:52.251Z,58.94
2018-07-23T23:31:20.339Z,58.57
2018-07-23T23:33:48.375Z,58.67
2018-07-23T23:36:16.439Z,58.86
2018-07-23T23:38:44.986Z,59.04
2018-07-23T23:41:13.031Z,59.20
2018-07-23T23:43:41.075Z,58.98
2018-07-23T23:46:09.149Z,59.34
2018-07-23T23:48:37.200Z,59.68
2018-07-23T23:51:05.243Z,59.45
2018-07-23T23:53:33.323Z,59.95
2018-07-23T23:56:01.411Z,60.07
2018-07-23T23:58:29.497Z,59.37
